Pagina principale
METAR-TAF:

METAR-TAF

Aeroporti :

Szolnok, Ungheria

latitudine: 47-07N, longitudine: 020-14E, altezza: 89 m

Osservazione

Il bollettino è stato emesso 34 minuti fa, alle 17:45 UTC
Vento 7 kt da est/nord-est
Temperature 27°C
Umidità 51%
Pressione 1014 hPa
Visibilità 10 km o più
nessuna nube inferiore a 1500 m e nessun cumulonembo

METAR: LHSN 191745Z 07007KT CAVOK 27/16 Q1014 NOSIG RMK BLU

Ora: 20:19 (18:19 UTC)

Previsione

Il bollettino è stato emesso 1 ora e 4 minuti fa, alle 17:15 UTC
Previsione valida dal 19 alle 18 UTC al 20 alle 03 UTC
Vento 8 kt da nord-est
Visibilità 10 km o più
nessuna nube inferiore a 1500 m e nessun cumulonembo

TAF: LHSN 191715Z 1918/2003 05008KT CAVOK

Osservazioni e previsioni meteorologiche di più di 4000 aeroporti (messaggi METAR e TAF).

Le stazioni disponibili sono rappresentate dai dischi gialli e rossi sulla carta.

Puntare il mouse per vedere il nome della stazione.

Clicca sopra per visualizzare le osservazioni e previsioni meteorologiche.

Per cambiare la mappa : fare clic sui pulsanti verdi con una croce nera per ingrandire, il pulsante verde con un trattino per diminuire, o sulla freccia verde per le mappe adiacenti.


METAR-TAF: